Creola, Alabama
Current Conditions -  °F | °C
As of 12:53 PM on Thursday 18 Dec 2014 (Local Time) from KBFM Reporting Station
Scattered Clouds Scattered Clouds  
Wind Chill: 61°   Ceiling: Unl
Heat Index: 61°   Visibility: 10mi
Dew Point: 42°   Wind: 3mph
Humidity: 50%   Direction: NA
Pressure: 30.15"   Gusts: NA
Location:  30.89°N, 88.04°W
Report Text: KBFM 181853Z VRB03KT 10SM SCT120 16/06 A3015 RMK AO2 SLP210 T01610056
Loading
Personal Weather Stations






























Interactive Weather Map New forecast layout! Learn more

10-Day Weather Forecast

Advertisements
Track Severe Weather on mobile